createdAt,value
2022-09-05T00:00:08.433Z,77.80
2022-09-05T00:00:46.085Z,77.63
2022-09-05T00:01:27.546Z,78.47
2022-09-05T00:02:32.444Z,77.40
2022-09-05T00:03:13.453Z,76.00
2022-09-05T00:03:54.167Z,76.65
2022-09-05T00:04:34.301Z,77.55
2022-09-05T00:05:50.948Z,76.68
2022-09-05T00:06:41.723Z,77.00
2022-09-05T00:07:57.681Z,77.22
2022-09-05T00:08:24.044Z,76.07
2022-09-05T00:09:05.569Z,77.15
2022-09-05T00:09:58.383Z,76.38
2022-09-05T00:11:19.469Z,76.60
2022-09-05T00:11:43.876Z,77.53
2022-09-05T00:12:18.178Z,76.93
2022-09-05T00:13:07.376Z,76.40
2022-09-05T00:13:44.899Z,77.15
2022-09-05T00:15:15.042Z,76.43
2022-09-05T00:15:34.724Z,76.40
2022-09-05T00:16:31.732Z,76.07
2022-09-05T00:17:15.999Z,76.85
2022-09-05T00:19:35.451Z,76.97
2022-09-05T00:24:20.544Z,76.47
2022-09-05T00:24:22.998Z,77.13
2022-09-05T00:24:32.757Z,75.20
2022-09-05T00:24:34.606Z,76.18
2022-09-05T00:24:36.938Z,76.82
2022-09-05T00:24:50.136Z,76.95
2022-09-05T00:25:48.269Z,77.10
2022-09-05T00:26:32.494Z,76.82
2022-09-05T00:27:13.607Z,76.70
2022-09-05T00:27:53.261Z,75.90
2022-09-05T00:28:33.826Z,76.88
2022-09-05T00:29:44.930Z,75.90
2022-09-05T00:31:08.779Z,76.07
2022-09-05T00:31:54.779Z,76.47
2022-09-05T00:32:23.816Z,76.82
2022-09-05T00:33:17.967Z,76.13
2022-09-05T00:34:02.703Z,77.00
2022-09-05T00:35:07.382Z,76.72
2022-09-05T00:36:06.908Z,75.72
2022-09-05T00:36:45.363Z,77.57
2022-09-05T00:37:32.155Z,76.32
2022-09-05T00:38:15.419Z,76.03
2022-09-05T00:38:56.764Z,76.30
2022-09-05T00:39:34.943Z,75.07
2022-09-05T00:40:19.555Z,75.75
2022-09-05T00:40:56.453Z,76.00
2022-09-05T00:41:29.797Z,76.45
2022-09-05T00:42:12.487Z,75.53
2022-09-05T00:42:47.149Z,75.20
2022-09-05T00:43:23.408Z,74.40
2022-09-05T00:43:58.290Z,74.80
2022-09-05T00:44:34.274Z,74.85
2022-09-05T00:45:14.654Z,75.85
2022-09-05T00:45:59.178Z,74.80
2022-09-05T00:46:36.475Z,74.78
2022-09-05T00:47:14.121Z,74.60
2022-09-05T00:47:52.634Z,74.07
2022-09-05T00:48:33.463Z,72.95
2022-09-05T00:49:19.336Z,74.50
2022-09-05T00:49:55.478Z,74.72
2022-09-05T00:50:35.116Z,73.70
2022-09-05T00:51:21.814Z,73.68
2022-09-05T00:52:10.358Z,74.93
2022-09-05T00:52:54.104Z,74.15
2022-09-05T00:53:49.955Z,73.28
2022-09-05T00:54:45.793Z,72.80
2022-09-05T00:55:26.255Z,73.03
2022-09-05T00:56:06.916Z,72.72
2022-09-05T00:56:58.233Z,73.28
2022-09-05T00:57:54.672Z,75.28
2022-09-05T00:59:00.497Z,73.05
2022-09-05T01:00:03.104Z,73.32
2022-09-05T01:00:46.516Z,73.45
2022-09-05T01:01:38.979Z,73.65
2022-09-05T01:02:22.248Z,72.43
2022-09-05T01:03:22.112Z,72.95
2022-09-05T01:04:17.205Z,74.30
2022-09-05T01:04:56.977Z,73.10
2022-09-05T01:05:43.521Z,73.78
2022-09-05T01:06:26.919Z,73.28
2022-09-05T01:07:16.328Z,73.68
2022-09-05T01:08:11.069Z,73.82
2022-09-05T01:09:14.374Z,73.83
2022-09-05T01:10:04.104Z,73.10
2022-09-05T01:10:43.827Z,73.30
2022-09-05T01:11:32.749Z,74.30
2022-09-05T01:12:19.500Z,73.60
2022-09-05T01:13:11.574Z,74.95
2022-09-05T01:13:50.435Z,73.88
2022-09-05T01:15:04.592Z,74.40
2022-09-05T01:15:48.397Z,73.18
2022-09-05T01:16:28.471Z,73.97
2022-09-05T01:17:17.629Z,73.28
2022-09-05T01:18:23.704Z,73.88
2022-09-05T01:19:10.436Z,74.50
2022-09-05T01:20:19.458Z,73.45
2022-09-05T01:21:30.395Z,74.32
2022-09-05T01:22:46.221Z,74.38
2022-09-05T01:23:36.687Z,73.53
2022-09-05T01:24:30.904Z,73.17
2022-09-05T01:25:19.609Z,74.20
2022-09-05T01:26:15.731Z,74.18
2022-09-05T01:27:23.991Z,73.40
2022-09-05T01:29:14.328Z,73.13
2022-09-05T01:29:18.507Z,73.60
2022-09-05T01:29:57.597Z,73.60
2022-09-05T01:30:37.377Z,73.15
2022-09-05T01:31:18.101Z,72.80
2022-09-05T01:32:18.488Z,73.47
2022-09-05T01:33:06.312Z,73.63
2022-09-05T01:33:47.327Z,73.15
2022-09-05T01:34:31.406Z,72.80
2022-09-05T01:35:54.965Z,73.22
2022-09-05T01:36:53.799Z,73.03
2022-09-05T01:37:37.456Z,72.70
2022-09-05T01:38:17.643Z,72.10
2022-09-05T01:39:49.202Z,72.65
2022-09-05T01:40:14.472Z,73.55
2022-09-05T01:41:18.610Z,73.00
2022-09-05T01:41:57.427Z,72.53
2022-09-05T01:42:40.165Z,73.22
2022-09-05T01:43:23.793Z,72.38
2022-09-05T01:44:16.088Z,72.38
2022-09-05T01:44:57.351Z,72.45
2022-09-05T01:45:46.288Z,72.03
2022-09-05T01:46:34.829Z,72.70
2022-09-05T01:47:29.642Z,71.90
2022-09-05T01:48:08.352Z,72.15
2022-09-05T01:48:50.515Z,71.70
2022-09-05T01:49:37.749Z,72.57
2022-09-05T01:50:27.648Z,72.25
2022-09-05T01:51:28.852Z,72.25
2022-09-05T01:52:25.593Z,71.95
2022-09-05T01:53:25.803Z,72.30
2022-09-05T01:54:24.740Z,72.30
2022-09-05T01:55:26.776Z,72.30
2022-09-05T01:56:34.781Z,71.60
2022-09-05T01:57:11.492Z,72.38
2022-09-05T01:57:50.829Z,72.43
2022-09-05T01:58:32.491Z,71.97
2022-09-05T01:59:17.197Z,72.20
2022-09-05T01:59:56.757Z,71.82
2022-09-05T02:01:32.963Z,71.72
2022-09-05T02:02:21.975Z,71.35
2022-09-05T02:03:08.475Z,71.97
2022-09-05T02:03:49.249Z,71.97
2022-09-05T02:04:48.157Z,71.35
2022-09-05T02:05:52.103Z,71.60
2022-09-05T02:06:34.738Z,71.75
2022-09-05T02:07:31.011Z,71.70
2022-09-05T02:08:20.832Z,71.85
2022-09-05T02:09:10.065Z,70.70
2022-09-05T02:10:04.901Z,70.65
2022-09-05T02:11:05.097Z,70.77
2022-09-05T02:11:45.894Z,70.97
2022-09-05T02:12:27.295Z,71.35
2022-09-05T02:13:11.450Z,70.53
2022-09-05T02:13:55.065Z,71.10
2022-09-05T02:14:39.625Z,70.68
2022-09-05T02:15:16.799Z,70.57
2022-09-05T02:15:59.977Z,70.57
2022-09-05T02:16:42.683Z,70.95
2022-09-05T02:17:49.944Z,70.95
2022-09-05T02:18:23.945Z,72.18
2022-09-05T02:19:06.418Z,71.35
2022-09-05T02:19:46.855Z,71.38
2022-09-05T02:20:24.322Z,71.25
2022-09-05T02:21:00.150Z,71.38
2022-09-05T02:21:56.425Z,71.45
2022-09-05T02:22:42.870Z,70.18
2022-09-05T02:23:41.816Z,71.03
2022-09-05T02:24:19.665Z,71.28
2022-09-05T02:26:00.364Z,71.93
2022-09-05T02:26:02.983Z,70.60
2022-09-05T02:26:46.551Z,70.25
2022-09-05T02:28:03.736Z,70.95
2022-09-05T02:28:29.513Z,71.60
2022-09-05T02:29:12.051Z,71.20
2022-09-05T02:30:09.091Z,70.47
2022-09-05T02:30:58.084Z,70.53
2022-09-05T02:31:47.430Z,70.90
2022-09-05T02:32:25.143Z,69.43
2022-09-05T02:33:10.698Z,71.03
2022-09-05T02:33:51.096Z,70.13
2022-09-05T02:34:30.490Z,70.78
2022-09-05T02:35:17.345Z,70.40
2022-09-05T02:36:00.335Z,70.43
2022-09-05T02:36:41.038Z,70.38
2022-09-05T02:37:21.497Z,70.45
2022-09-05T02:39:51.957Z,69.93
2022-09-05T02:45:02.307Z,69.70
2022-09-05T02:45:08.182Z,70.28
2022-09-05T02:45:11.751Z,69.00
2022-09-05T02:45:12.660Z,69.97
2022-09-05T02:45:17.651Z,70.00
2022-09-05T02:45:17.651Z,69.60
2022-09-05T02:45:38.655Z,69.07
2022-09-05T02:46:18.640Z,70.30
2022-09-05T02:46:59.611Z,69.68
2022-09-05T02:47:37.707Z,69.60
2022-09-05T02:48:20.822Z,70.15
2022-09-05T02:48:58.586Z,70.72
2022-09-05T02:51:08.242Z,70.80
2022-09-05T02:55:07.041Z,69.50
2022-09-05T02:57:26.025Z,69.40
2022-09-05T02:57:27.963Z,69.72
2022-09-05T02:57:32.899Z,69.15
2022-09-05T02:57:33.107Z,69.38
2022-09-05T02:57:35.090Z,69.60
2022-09-05T02:57:38.796Z,69.50
2022-09-05T02:58:07.720Z,69.20
2022-09-05T02:59:10.054Z,70.07
2022-09-05T02:59:54.984Z,69.88
2022-09-05T03:00:33.575Z,69.15
2022-09-05T03:01:09.931Z,69.28
2022-09-05T03:01:59.896Z,69.43
2022-09-05T03:02:48.924Z,69.50
2022-09-05T03:03:35.030Z,68.22
2022-09-05T03:04:18.313Z,69.68
2022-09-05T03:05:04.663Z,69.60
2022-09-05T03:05:43.991Z,69.72
2022-09-05T03:06:34.611Z,69.13
2022-09-05T03:07:30.224Z,69.57
2022-09-05T03:08:19.809Z,69.18
2022-09-05T03:09:17.111Z,69.03
2022-09-05T03:10:06.643Z,69.07
2022-09-05T03:11:08.526Z,68.72
2022-09-05T03:12:28.286Z,69.00
2022-09-05T03:13:54.410Z,67.68
2022-09-05T03:15:18.676Z,69.28
2022-09-05T03:16:17.054Z,68.80
2022-09-05T03:17:32.462Z,68.03
2022-09-05T03:18:24.061Z,68.38
2022-09-05T03:19:46.212Z,68.65
2022-09-05T03:20:54.208Z,68.07
2022-09-05T03:22:09.340Z,68.60
2022-09-05T03:23:33.176Z,68.38
2022-09-05T03:24:39.559Z,68.68
2022-09-05T03:25:43.774Z,68.90
2022-09-05T03:26:53.427Z,68.63
2022-09-05T03:28:03.387Z,68.13
2022-09-05T03:29:19.147Z,68.10
2022-09-05T03:30:07.202Z,68.20
2022-09-05T03:30:56.816Z,68.80
2022-09-05T03:32:00.770Z,68.22
2022-09-05T03:32:57.545Z,67.28
2022-09-05T03:33:47.348Z,67.97
2022-09-05T03:34:59.145Z,67.63
2022-09-05T03:35:53.818Z,67.75
2022-09-05T03:37:11.550Z,68.00
2022-09-05T03:37:59.053Z,68.35
2022-09-05T03:39:02.722Z,67.82
2022-09-05T03:40:16.042Z,68.28
2022-09-05T03:41:15.466Z,67.93
2022-09-05T03:42:14.581Z,69.35
2022-09-05T03:43:04.278Z,67.70
2022-09-05T03:44:03.830Z,67.88
2022-09-05T03:45:11.242Z,67.70
2022-09-05T03:45:59.263Z,68.03
2022-09-05T03:47:01.864Z,67.72
2022-09-05T03:48:01.705Z,67.88
2022-09-05T03:50:16.721Z,67.68
2022-09-05T03:56:48.649Z,67.85
2022-09-05T03:57:06.848Z,67.82
2022-09-05T03:57:12.145Z,67.25
2022-09-05T03:57:14.381Z,67.47
2022-09-05T03:57:19.159Z,68.63
2022-09-05T03:57:27.637Z,68.63
2022-09-05T03:58:31.828Z,68.32
2022-09-05T03:59:51.760Z,68.00
2022-09-05T04:00:26.530Z,67.50
2022-09-05T04:01:11.089Z,67.85
2022-09-05T04:08:05.721Z,68.00
2022-09-05T04:08:05.906Z,68.15
2022-09-05T04:08:17.040Z,67.93
2022-09-05T04:08:17.041Z,68.18
2022-09-05T04:08:18.447Z,68.53
2022-09-05T04:08:19.743Z,68.55
2022-09-05T04:08:34.260Z,67.82
2022-09-05T04:09:10.596Z,67.53
2022-09-05T04:09:51.940Z,67.72
2022-09-05T04:10:30.896Z,68.57
2022-09-05T04:11:09.487Z,68.28
2022-09-05T04:11:47.367Z,68.53
2022-09-05T04:12:26.120Z,68.00
2022-09-05T04:13:04.474Z,68.38
2022-09-05T04:13:41.358Z,67.32
2022-09-05T04:14:21.965Z,68.00
2022-09-05T04:14:57.922Z,68.55
2022-09-05T04:15:38.870Z,67.63
2022-09-05T04:16:16.653Z,67.75
2022-09-05T04:16:52.514Z,68.40
2022-09-05T04:17:31.205Z,66.90
2022-09-05T04:18:33.296Z,68.03
2022-09-05T04:19:10.859Z,68.43
2022-09-05T04:19:50.092Z,68.35
2022-09-05T04:20:31.938Z,67.90
2022-09-05T04:21:10.287Z,67.65
2022-09-05T04:21:49.397Z,67.82
2022-09-05T04:22:28.560Z,67.55
2022-09-05T04:23:14.283Z,68.05
2022-09-05T04:24:01.683Z,68.45
2022-09-05T04:24:42.755Z,68.13
2022-09-05T04:25:21.542Z,68.50
2022-09-05T04:26:11.348Z,68.05
2022-09-05T04:27:11.684Z,67.50
2022-09-05T04:27:52.194Z,67.65
2022-09-05T04:28:42.972Z,68.35
2022-09-05T04:29:38.244Z,67.80
2022-09-05T04:30:38.053Z,68.15
2022-09-05T04:31:22.154Z,68.50
2022-09-05T04:32:11.023Z,68.35
2022-09-05T04:32:58.198Z,67.75
2022-09-05T04:33:40.073Z,68.30
2022-09-05T04:34:33.347Z,68.05
2022-09-05T04:35:30.203Z,68.22
2022-09-05T04:36:18.133Z,68.72
2022-09-05T04:37:02.425Z,68.10
2022-09-05T04:37:48.189Z,68.15
2022-09-05T04:38:38.348Z,68.28
2022-09-05T04:39:26.692Z,69.07
2022-09-05T04:40:35.073Z,68.75
2022-09-05T04:41:11.135Z,68.50
2022-09-05T04:41:48.989Z,68.05
2022-09-05T04:42:24.479Z,67.72
2022-09-05T04:43:00.269Z,68.63
2022-09-05T04:43:38.276Z,67.68
2022-09-05T04:44:14.841Z,68.65
2022-09-05T04:44:55.882Z,68.68
2022-09-05T04:45:34.013Z,68.82
2022-09-05T04:46:24.653Z,68.68
2022-09-05T04:47:01.645Z,68.85
2022-09-05T04:47:38.320Z,68.53
2022-09-05T04:48:19.403Z,69.35
2022-09-05T04:49:05.554Z,68.15
2022-09-05T04:49:42.911Z,68.18
2022-09-05T04:50:23.678Z,69.20
2022-09-05T04:51:08.009Z,68.32
2022-09-05T04:52:29.394Z,68.50
2022-09-05T04:53:15.914Z,68.65
2022-09-05T04:54:07.842Z,69.20
2022-09-05T04:54:45.417Z,69.38
2022-09-05T04:55:22.186Z,68.63
2022-09-05T04:55:57.910Z,69.13
2022-09-05T04:56:36.225Z,68.10
2022-09-05T04:57:22.075Z,68.47
2022-09-05T04:57:57.375Z,68.03
2022-09-05T04:59:34.283Z,68.68
2022-09-05T05:02:27.049Z,68.30
2022-09-05T05:04:38.134Z,68.88
2022-09-05T05:06:01.210Z,68.30
2022-09-05T05:06:10.849Z,67.80
2022-09-05T05:06:11.901Z,68.15
2022-09-05T05:06:13.726Z,68.32
2022-09-05T05:06:19.942Z,68.10
2022-09-05T05:06:44.094Z,67.43
2022-09-05T05:07:22.666Z,68.43
2022-09-05T05:07:59.312Z,68.63
2022-09-05T05:08:40.827Z,68.33
2022-09-05T05:09:21.864Z,68.05
2022-09-05T05:12:27.477Z,68.03
2022-09-05T05:16:13.525Z,68.25
2022-09-05T05:17:55.851Z,68.53
2022-09-05T05:17:58.767Z,68.30
2022-09-05T05:18:02.812Z,68.63
2022-09-05T05:18:08.953Z,68.95
2022-09-05T05:18:12.649Z,68.75
2022-09-05T05:18:13.272Z,68.65
2022-09-05T05:18:13.561Z,68.25
2022-09-05T05:18:59.570Z,69.40
2022-09-05T05:19:42.168Z,68.82
2022-09-05T05:20:39.845Z,68.43
2022-09-05T05:21:18.135Z,68.78
2022-09-05T05:21:55.229Z,69.38
2022-09-05T05:22:28.193Z,68.28
2022-09-05T05:23:07.801Z,69.00
2022-09-05T05:23:44.372Z,68.80
2022-09-05T05:24:21.938Z,68.55
2022-09-05T05:24:57.413Z,69.10
2022-09-05T05:25:33.759Z,69.00
2022-09-05T05:26:13.487Z,68.50
2022-09-05T05:26:57.115Z,68.55
2022-09-05T05:27:41.080Z,68.43
2022-09-05T05:28:22.746Z,68.38
2022-09-05T05:29:04.597Z,68.18
2022-09-05T05:29:46.164Z,68.82
2022-09-05T05:30:26.855Z,68.85
2022-09-05T05:31:12.039Z,69.07
2022-09-05T05:31:50.242Z,68.88
2022-09-05T05:32:43.655Z,68.88
2022-09-05T05:33:26.962Z,68.25
2022-09-05T05:34:03.955Z,68.93
2022-09-05T05:34:51.443Z,68.03
2022-09-05T05:35:28.058Z,69.65
2022-09-05T05:36:04.842Z,68.82
2022-09-05T05:36:46.754Z,68.22
2022-09-05T05:37:26.200Z,69.15
2022-09-05T05:38:07.908Z,69.05
2022-09-05T05:38:53.111Z,69.10
2022-09-05T05:39:27.942Z,68.60
2022-09-05T05:40:06.398Z,68.00
2022-09-05T05:40:50.740Z,69.35
2022-09-05T05:41:29.429Z,68.40
2022-09-05T05:42:19.896Z,68.85
2022-09-05T05:43:12.359Z,68.53
2022-09-05T05:43:47.658Z,68.65
2022-09-05T05:44:26.160Z,68.57
2022-09-05T05:44:59.805Z,68.13
2022-09-05T05:45:34.813Z,68.07
2022-09-05T05:46:08.666Z,68.28
2022-09-05T05:46:45.610Z,68.65
2022-09-05T05:47:31.876Z,68.00
2022-09-05T05:48:24.145Z,68.27
2022-09-05T05:49:14.537Z,68.93
2022-09-05T05:50:01.513Z,68.60
2022-09-05T05:50:43.627Z,68.65
2022-09-05T05:51:34.632Z,70.05
2022-09-05T05:52:55.910Z,69.40
2022-09-05T05:53:43.578Z,68.43
2022-09-05T05:54:28.279Z,69.25
2022-09-05T05:55:36.219Z,68.47
2022-09-05T05:56:16.929Z,68.78
2022-09-05T05:57:15.412Z,68.75
2022-09-05T05:58:06.022Z,68.65
2022-09-05T05:58:58.875Z,67.82
2022-09-05T05:59:55.400Z,69.20
2022-09-05T06:00:42.480Z,68.47
2022-09-05T06:02:02.717Z,68.32
2022-09-05T06:03:26.511Z,68.43
2022-09-05T06:04:44.702Z,68.78
2022-09-05T06:05:41.213Z,68.20
2022-09-05T06:06:23.855Z,68.93
2022-09-05T06:07:10.059Z,69.63
2022-09-05T06:09:35.089Z,68.10
2022-09-05T06:14:42.791Z,69.03
2022-09-05T06:14:51.405Z,68.32
2022-09-05T06:15:00.914Z,68.85
2022-09-05T06:15:05.892Z,69.30
2022-09-05T06:15:09.323Z,69.15
2022-09-05T06:16:23.499Z,68.75
2022-09-05T06:17:28.108Z,69.47
2022-09-05T06:18:35.697Z,69.28
2022-09-05T06:22:04.713Z,69.03
2022-09-05T06:22:06.615Z,69.43
2022-09-05T06:22:50.188Z,70.07
2022-09-05T06:23:59.537Z,70.40
2022-09-05T06:25:17.372Z,69.80
2022-09-05T06:26:15.511Z,69.25
2022-09-05T06:27:01.434Z,69.82
2022-09-05T06:28:05.625Z,70.28
2022-09-05T06:28:58.791Z,69.82
2022-09-05T06:29:49.292Z,70.15
2022-09-05T06:30:26.680Z,70.00
2022-09-05T06:31:30.296Z,69.93
2022-09-05T06:32:16.868Z,70.13
2022-09-05T06:33:09.101Z,70.40
2022-09-05T06:34:00.486Z,70.35
2022-09-05T06:35:04.431Z,70.03
2022-09-05T06:35:52.897Z,70.55
2022-09-05T06:36:52.245Z,69.80
2022-09-05T06:37:34.752Z,69.78
2022-09-05T06:38:34.772Z,69.75
2022-09-05T06:39:13.867Z,70.57
2022-09-05T06:40:11.989Z,69.50
2022-09-05T06:40:58.445Z,69.40
2022-09-05T06:41:52.610Z,69.28
2022-09-05T06:42:43.458Z,69.93
2022-09-05T06:43:35.318Z,69.68
2022-09-05T06:44:43.259Z,70.60
2022-09-05T06:45:40.891Z,70.38
2022-09-05T06:46:52.833Z,70.30
2022-09-05T06:47:33.901Z,69.95
2022-09-05T06:48:19.818Z,70.00
2022-09-05T06:49:30.091Z,70.43
2022-09-05T06:50:26.017Z,70.15
2022-09-05T06:51:33.927Z,70.97
2022-09-05T06:52:30.152Z,71.22
2022-09-05T06:53:36.942Z,70.85
2022-09-05T06:54:32.533Z,71.13
2022-09-05T06:55:40.683Z,71.28
2022-09-05T06:56:40.915Z,70.93
2022-09-05T06:57:48.991Z,70.55
2022-09-05T06:59:00.268Z,71.38
2022-09-05T07:00:12.530Z,70.95
2022-09-05T07:00:57.053Z,70.63
2022-09-05T07:01:53.798Z,71.13
2022-09-05T07:02:59.440Z,70.95
2022-09-05T07:03:46.745Z,71.50
2022-09-05T07:05:37.820Z,70.85
2022-09-05T07:05:42.778Z,71.28
2022-09-05T07:06:48.127Z,70.50
2022-09-05T07:07:27.526Z,71.78
2022-09-05T07:08:33.509Z,71.10
2022-09-05T07:09:08.512Z,71.82
2022-09-05T07:09:59.200Z,70.65
2022-09-05T07:10:38.849Z,71.38
2022-09-05T07:11:18.395Z,71.38
2022-09-05T07:12:02.328Z,71.85
2022-09-05T07:12:46.817Z,70.97
2022-09-05T07:13:25.174Z,70.80
2022-09-05T07:14:03.229Z,71.63
2022-09-05T07:14:46.742Z,72.05
2022-09-05T07:15:33.293Z,71.05
2022-09-05T07:16:16.586Z,72.03
2022-09-05T07:17:10.780Z,71.55
2022-09-05T07:18:10.245Z,71.05
2022-09-05T07:18:51.195Z,70.72
2022-09-05T07:19:28.991Z,71.18
2022-09-05T07:20:03.864Z,71.82
2022-09-05T07:21:16.540Z,71.47
2022-09-05T07:21:46.445Z,71.80
2022-09-05T07:22:48.613Z,71.70
2022-09-05T07:24:06.934Z,71.40
2022-09-05T07:24:53.625Z,70.60
2022-09-05T07:25:37.461Z,71.82
2022-09-05T07:26:11.248Z,71.10
2022-09-05T07:27:08.934Z,71.20
2022-09-05T07:28:26.591Z,71.53
2022-09-05T07:28:45.989Z,70.55
2022-09-05T07:29:24.201Z,71.32
2022-09-05T07:30:00.905Z,71.07
2022-09-05T07:30:36.993Z,71.05
2022-09-05T07:31:26.524Z,71.60
2022-09-05T07:32:16.354Z,71.55
2022-09-05T07:32:56.859Z,71.43
2022-09-05T07:33:32.095Z,71.28
2022-09-05T07:34:21.241Z,71.82
2022-09-05T07:34:56.066Z,71.20
2022-09-05T07:35:34.664Z,70.95
2022-09-05T07:36:20.363Z,70.55
2022-09-05T07:37:15.604Z,70.75
2022-09-05T07:38:07.020Z,72.10
2022-09-05T07:38:54.925Z,71.17
2022-09-05T07:39:40.610Z,70.85
2022-09-05T07:40:27.310Z,71.40
2022-09-05T07:41:09.210Z,71.10
2022-09-05T07:41:45.953Z,70.90
2022-09-05T07:42:25.830Z,71.25
2022-09-05T07:43:10.050Z,71.60
2022-09-05T07:43:46.891Z,71.55
2022-09-05T07:44:23.322Z,71.95
2022-09-05T07:45:01.660Z,71.20
2022-09-05T07:45:37.098Z,70.97
2022-09-05T07:46:15.896Z,70.35
2022-09-05T07:46:55.153Z,70.85
2022-09-05T07:47:32.557Z,71.38
2022-09-05T07:48:11.417Z,70.60
2022-09-05T07:48:47.352Z,70.57
2022-09-05T07:49:23.861Z,70.78
2022-09-05T07:51:07.714Z,70.30
2022-09-05T07:55:33.899Z,70.78
2022-09-05T07:56:47.305Z,70.50
2022-09-05T07:56:50.339Z,70.53
2022-09-05T07:56:52.163Z,70.85
2022-09-05T07:56:54.031Z,71.20
2022-09-05T07:56:56.945Z,70.30
2022-09-05T07:56:58.767Z,70.95
2022-09-05T07:57:51.901Z,70.10
2022-09-05T07:58:34.429Z,70.93
2022-09-05T07:59:10.625Z,70.45
2022-09-05T07:59:48.121Z,70.72
2022-09-05T08:00:27.052Z,71.93
2022-09-05T08:01:02.874Z,70.78
2022-09-05T08:01:39.541Z,71.43
2022-09-05T08:02:14.485Z,71.20
2022-09-05T08:02:51.462Z,72.25
2022-09-05T08:03:29.322Z,71.35
2022-09-05T08:04:05.617Z,71.18
2022-09-05T08:04:40.909Z,71.13
2022-09-05T08:05:15.993Z,70.28
2022-09-05T08:06:00.830Z,71.43
2022-09-05T08:07:45.667Z,70.97
2022-09-05T08:07:47.734Z,71.28
2022-09-05T08:08:27.892Z,70.88
2022-09-05T08:09:21.547Z,70.90
2022-09-05T08:10:08.662Z,70.07
2022-09-05T08:11:25.744Z,70.57
2022-09-05T08:11:42.986Z,71.32
2022-09-05T08:12:27.850Z,70.65
2022-09-05T08:13:24.243Z,71.40
2022-09-05T08:14:38.573Z,70.72
2022-09-05T08:15:01.287Z,71.70
2022-09-05T08:16:02.920Z,70.57
2022-09-05T08:16:32.058Z,71.13
2022-09-05T08:17:08.511Z,71.35
2022-09-05T08:17:48.220Z,71.72
2022-09-05T08:18:30.752Z,71.10
2022-09-05T08:19:27.022Z,70.97
2022-09-05T08:20:11.895Z,70.55
2022-09-05T08:20:49.753Z,70.65
2022-09-05T08:21:28.073Z,70.70
2022-09-05T08:22:02.614Z,70.75
2022-09-05T08:22:52.171Z,70.80
2022-09-05T08:23:41.424Z,70.78
2022-09-05T08:24:24.000Z,69.97
2022-09-05T08:25:04.200Z,70.65
2022-09-05T08:25:57.658Z,69.78
2022-09-05T08:26:38.071Z,70.20
2022-09-05T08:27:16.976Z,68.97
2022-09-05T08:28:06.298Z,69.57
2022-09-05T08:28:53.582Z,70.25
2022-09-05T08:29:35.350Z,69.85
2022-09-05T08:30:26.793Z,70.00
2022-09-05T08:31:07.811Z,69.55
2022-09-05T08:31:44.511Z,69.72
2022-09-05T08:32:22.104Z,69.97
2022-09-05T08:33:11.366Z,71.20
2022-09-05T08:33:46.320Z,69.95
2022-09-05T08:34:32.744Z,69.65
2022-09-05T08:35:20.981Z,70.40
2022-09-05T08:36:01.691Z,70.40
2022-09-05T08:36:37.672Z,69.75
2022-09-05T08:37:15.146Z,69.88
2022-09-05T08:37:56.304Z,69.90
2022-09-05T08:38:40.414Z,69.88
2022-09-05T08:39:16.975Z,69.35
2022-09-05T08:40:10.047Z,68.85
2022-09-05T08:40:52.562Z,69.97
2022-09-05T08:41:49.719Z,69.60
2022-09-05T08:42:29.418Z,68.88
2022-09-05T08:46:35.160Z,69.28
2022-09-05T08:46:41.198Z,68.43
2022-09-05T08:46:46.735Z,69.10
2022-09-05T08:46:47.585Z,69.53
2022-09-05T08:47:26.824Z,69.28
2022-09-05T08:48:11.887Z,69.28
2022-09-05T08:49:02.173Z,68.53
2022-09-05T08:50:18.855Z,68.75
2022-09-05T08:51:07.908Z,69.65
2022-09-05T08:51:53.988Z,69.15
2022-09-05T08:52:36.934Z,69.25
2022-09-05T08:53:45.569Z,69.63
2022-09-05T08:54:21.686Z,69.13
2022-09-05T08:55:13.054Z,68.97
2022-09-05T08:55:52.065Z,69.18
2022-09-05T08:56:30.865Z,69.47
2022-09-05T08:57:12.566Z,68.47
2022-09-05T08:58:16.133Z,68.93
2022-09-05T08:59:31.977Z,70.50
2022-09-05T09:00:20.091Z,68.72
2022-09-05T09:01:05.472Z,68.88
2022-09-05T09:02:14.659Z,69.07
2022-09-05T09:02:57.028Z,69.40
2022-09-05T09:03:52.443Z,68.45
2022-09-05T09:05:01.229Z,68.53
2022-09-05T09:06:14.022Z,69.05
2022-09-05T09:07:48.036Z,68.57
2022-09-05T09:08:10.325Z,69.20
2022-09-05T09:09:11.440Z,69.28
2022-09-05T09:09:52.176Z,68.40
2022-09-05T09:10:35.921Z,68.90
2022-09-05T09:11:14.356Z,68.90
2022-09-05T09:11:55.658Z,69.22
2022-09-05T09:13:00.998Z,69.13
2022-09-05T09:13:52.149Z,68.45
2022-09-05T09:14:43.652Z,69.10
2022-09-05T09:15:24.862Z,68.47
2022-09-05T09:16:06.633Z,68.07
2022-09-05T09:16:43.955Z,68.30
2022-09-05T09:17:30.274Z,68.78
2022-09-05T09:18:13.030Z,68.00
2022-09-05T09:19:05.385Z,69.28
2022-09-05T09:19:48.349Z,68.50
2022-09-05T09:20:37.468Z,68.95
2022-09-05T09:21:35.050Z,68.32
2022-09-05T09:22:18.748Z,68.00
2022-09-05T09:22:58.254Z,67.95
2022-09-05T09:23:44.210Z,68.72
2022-09-05T09:24:28.540Z,67.80
2022-09-05T09:25:15.102Z,67.88
2022-09-05T09:25:59.333Z,67.82
2022-09-05T09:26:36.293Z,68.03
2022-09-05T09:27:19.105Z,67.70
2022-09-05T09:28:48.214Z,68.22
2022-09-05T09:29:17.616Z,68.00
2022-09-05T09:29:55.208Z,67.95
2022-09-05T09:30:29.414Z,68.20
2022-09-05T09:31:17.008Z,68.18
2022-09-05T09:32:01.746Z,67.95
2022-09-05T09:32:45.674Z,67.88
2022-09-05T09:33:29.445Z,68.93
2022-09-05T09:34:29.448Z,68.50
2022-09-05T09:35:07.536Z,68.38
2022-09-05T09:35:46.782Z,68.32
2022-09-05T09:36:47.763Z,68.45
2022-09-05T09:37:54.370Z,67.95
2022-09-05T09:38:40.506Z,67.40
2022-09-05T09:39:38.013Z,68.20
2022-09-05T09:40:40.638Z,68.05
2022-09-05T09:41:38.576Z,67.70
2022-09-05T09:42:33.339Z,68.70
2022-09-05T09:43:14.419Z,67.65
2022-09-05T09:44:20.360Z,68.50
2022-09-05T09:45:29.683Z,68.23
2022-09-05T09:46:17.869Z,67.47
2022-09-05T09:46:51.431Z,67.78
2022-09-05T09:47:46.576Z,68.15
2022-09-05T09:48:46.820Z,67.68
2022-09-05T09:49:49.030Z,68.30
2022-09-05T09:50:49.183Z,68.10
2022-09-05T09:51:46.633Z,67.90
2022-09-05T09:52:48.650Z,68.25
2022-09-05T09:53:38.908Z,69.28
2022-09-05T09:54:40.268Z,68.53
2022-09-05T09:55:53.284Z,68.00
2022-09-05T09:57:03.897Z,68.22
2022-09-05T09:58:14.140Z,68.28
2022-09-05T09:59:15.503Z,67.95
2022-09-05T10:00:33.237Z,68.32
2022-09-05T10:01:36.620Z,68.70
2022-09-05T10:05:44.203Z,68.65
2022-09-05T10:07:18.579Z,67.80
2022-09-05T10:10:36.454Z,67.88
2022-09-05T10:10:49.033Z,68.55
2022-09-05T10:10:59.753Z,67.43
2022-09-05T10:11:07.996Z,67.82
2022-09-05T10:11:22.649Z,68.40
2022-09-05T10:11:58.357Z,68.38
2022-09-05T10:13:10.530Z,68.00
2022-09-05T10:14:35.407Z,67.68
2022-09-05T10:15:31.116Z,67.88
2022-09-05T10:16:53.290Z,67.60
2022-09-05T10:17:55.205Z,68.10
2022-09-05T10:18:51.563Z,68.00
2022-09-05T10:20:11.015Z,67.95
2022-09-05T10:21:21.268Z,67.53
2022-09-05T10:23:45.467Z,68.20
2022-09-05T10:24:37.564Z,67.97
2022-09-05T10:25:29.278Z,68.50
2022-09-05T10:26:38.293Z,68.00
2022-09-05T10:27:44.661Z,68.13
2022-09-05T10:28:37.701Z,67.70
2022-09-05T10:29:37.452Z,68.40
2022-09-05T10:30:16.429Z,68.78
2022-09-05T10:33:14.010Z,67.78
2022-09-05T10:35:09.524Z,68.00
2022-09-05T10:35:15.320Z,68.40
2022-09-05T10:35:18.357Z,67.88
2022-09-05T10:35:37.217Z,67.57
2022-09-05T10:36:23.416Z,67.90
2022-09-05T10:37:05.131Z,68.40
2022-09-05T10:37:42.436Z,68.32
2022-09-05T10:38:20.502Z,67.88
2022-09-05T10:39:02.629Z,68.53
2022-09-05T10:39:39.122Z,68.10
2022-09-05T10:40:14.767Z,68.10
2022-09-05T10:41:19.986Z,68.20
2022-09-05T10:41:51.803Z,68.38
2022-09-05T10:42:35.171Z,68.18
2022-09-05T10:43:25.375Z,67.70
2022-09-05T10:44:01.464Z,68.25
2022-09-05T10:44:41.057Z,67.95
2022-09-05T10:45:19.288Z,67.87
2022-09-05T10:46:46.996Z,67.55
2022-09-05T10:47:25.219Z,67.82
2022-09-05T10:48:13.604Z,68.18
2022-09-05T10:48:53.465Z,68.28
2022-09-05T10:49:36.829Z,68.15
2022-09-05T10:50:21.903Z,68.15
2022-09-05T10:51:01.665Z,68.45
2022-09-05T10:51:41.880Z,68.47
2022-09-05T10:52:21.316Z,67.70
2022-09-05T10:53:38.885Z,67.97
2022-09-05T10:54:35.841Z,68.07
2022-09-05T10:55:20.098Z,68.28
2022-09-05T10:56:03.591Z,67.65
2022-09-05T10:56:43.124Z,68.03
2022-09-05T10:57:36.680Z,67.70
2022-09-05T10:59:53.294Z,68.40
2022-09-05T11:02:20.361Z,67.53